createdAt,value
2023-02-17T00:00:28.750Z,66.20
2023-02-17T00:01:28.780Z,70.00
2023-02-17T00:02:28.896Z,71.70
2023-02-17T00:03:28.818Z,70.90
2023-02-17T00:04:29.782Z,62.30
2023-02-17T00:05:28.756Z,67.80
2023-02-17T00:06:28.782Z,65.90
2023-02-17T00:07:28.784Z,70.60
2023-02-17T00:08:28.736Z,71.80
2023-02-17T00:09:28.721Z,78.40
2023-02-17T00:10:28.784Z,66.50
2023-02-17T00:11:28.751Z,67.70
2023-02-17T00:12:28.764Z,74.80
2023-02-17T00:13:28.721Z,70.00
2023-02-17T00:14:28.704Z,65.30
2023-02-17T00:15:28.694Z,65.40
2023-02-17T00:16:28.704Z,58.40
2023-02-17T00:17:28.741Z,64.00
2023-02-17T00:18:28.670Z,68.10
2023-02-17T00:19:28.746Z,66.80
2023-02-17T00:20:28.673Z,74.70
2023-02-17T00:21:28.700Z,70.80
2023-02-17T00:22:28.671Z,69.70
2023-02-17T00:23:28.698Z,67.10
2023-02-17T00:24:28.707Z,70.20
2023-02-17T00:25:28.654Z,71.20
2023-02-17T00:26:28.666Z,70.30
2023-02-17T00:27:28.678Z,73.80
2023-02-17T00:28:28.667Z,73.00
2023-02-17T00:29:28.652Z,73.00
2023-02-17T00:30:28.699Z,75.80
2023-02-17T00:31:28.780Z,77.70
2023-02-17T00:32:28.647Z,73.10
2023-02-17T00:33:28.632Z,73.10
2023-02-17T00:34:28.672Z,75.20
2023-02-17T00:35:28.612Z,79.20
2023-02-17T00:36:28.664Z,70.20
2023-02-17T00:37:28.584Z,69.60
2023-02-17T00:38:28.599Z,72.20
2023-02-17T00:39:28.634Z,72.70
2023-02-17T00:40:28.589Z,75.60
2023-02-17T00:41:28.584Z,69.60
2023-02-17T00:42:28.575Z,75.30
2023-02-17T00:43:28.576Z,74.50
2023-02-17T00:44:28.640Z,66.70
2023-02-17T00:45:28.559Z,74.80
2023-02-17T00:46:28.669Z,78.50
2023-02-17T00:47:28.555Z,70.40
2023-02-17T00:48:28.596Z,66.80
2023-02-17T00:49:28.566Z,72.20
2023-02-17T00:50:28.531Z,71.60
2023-02-17T00:51:28.557Z,72.20
2023-02-17T00:52:28.539Z,74.10
2023-02-17T00:53:28.541Z,74.00
2023-02-17T00:54:28.548Z,76.10
2023-02-17T00:55:28.523Z,72.60
2023-02-17T00:56:28.528Z,74.70
2023-02-17T00:57:28.572Z,74.20
2023-02-17T00:58:28.500Z,71.80
2023-02-17T00:59:28.517Z,71.10
2023-02-17T01:00:28.556Z,69.90
2023-02-17T01:01:29.164Z,71.80
2023-02-17T01:02:28.513Z,72.30
2023-02-17T01:03:28.504Z,77.90
2023-02-17T01:04:28.555Z,79.10
2023-02-17T01:05:28.493Z,70.80
2023-02-17T01:06:28.549Z,73.10
2023-02-17T01:07:28.474Z,67.60
2023-02-17T01:08:28.532Z,77.70
2023-02-17T01:09:28.488Z,68.90
2023-02-17T01:10:28.442Z,69.10
2023-02-17T01:11:28.521Z,70.40
2023-02-17T01:12:28.459Z,70.50
2023-02-17T01:13:28.436Z,73.20
2023-02-17T01:14:28.430Z,69.30
2023-02-17T01:15:28.494Z,71.70
2023-02-17T01:16:28.526Z,68.60
2023-02-17T01:17:28.397Z,70.50
2023-02-17T01:18:28.443Z,68.00
2023-02-17T01:19:28.405Z,70.00
2023-02-17T01:20:28.447Z,73.70
2023-02-17T01:21:28.412Z,70.20
2023-02-17T01:22:28.483Z,73.70
2023-02-17T01:23:28.513Z,68.90
2023-02-17T01:24:28.418Z,70.00
2023-02-17T01:25:28.391Z,71.70
2023-02-17T01:26:28.399Z,74.50
2023-02-17T01:27:28.441Z,75.90
2023-02-17T01:28:28.389Z,71.50
2023-02-17T01:29:28.376Z,77.50
2023-02-17T01:30:28.365Z,79.40
2023-02-17T01:31:28.450Z,75.30
2023-02-17T01:32:28.485Z,73.30
2023-02-17T01:33:28.344Z,72.80
2023-02-17T01:34:28.405Z,70.00
2023-02-17T01:35:28.467Z,77.40
2023-02-17T01:36:28.384Z,72.20
2023-02-17T01:37:28.393Z,76.30
2023-02-17T01:38:28.334Z,76.60
2023-02-17T01:39:28.298Z,74.20
2023-02-17T01:40:28.357Z,81.30
2023-02-17T01:41:28.310Z,79.50
2023-02-17T01:42:28.295Z,79.60
2023-02-17T01:43:28.337Z,76.50
2023-02-17T01:44:28.293Z,82.00
2023-02-17T01:45:28.293Z,68.90
2023-02-17T01:46:28.335Z,78.10
2023-02-17T01:47:28.260Z,72.00
2023-02-17T01:48:28.302Z,77.50
2023-02-17T01:49:28.343Z,77.00
2023-02-17T01:50:28.325Z,77.50
2023-02-17T01:51:28.255Z,87.50
2023-02-17T01:52:28.294Z,85.50
2023-02-17T01:53:28.252Z,89.10
2023-02-17T01:54:28.233Z,94.60
2023-02-17T01:55:28.232Z,92.40
2023-02-17T01:56:28.249Z,98.90
2023-02-17T01:57:28.242Z,91.60
2023-02-17T01:58:28.240Z,100.20
2023-02-17T01:59:28.253Z,93.80
2023-02-17T02:00:28.201Z,107.00
2023-02-17T02:01:28.235Z,101.60
2023-02-17T02:02:28.279Z,104.50
2023-02-17T02:03:28.200Z,106.80
2023-02-17T02:04:28.198Z,103.80
2023-02-17T02:05:28.192Z,106.40
2023-02-17T02:06:29.187Z,96.30
2023-02-17T02:07:28.168Z,98.80
2023-02-17T02:08:28.219Z,103.20
2023-02-17T02:09:28.164Z,107.10
2023-02-17T02:10:28.153Z,107.70
2023-02-17T02:11:28.142Z,110.10
2023-02-17T02:12:28.218Z,115.70
2023-02-17T02:13:28.147Z,114.80
2023-02-17T02:14:28.153Z,120.70
2023-02-17T02:15:28.147Z,109.80
2023-02-17T02:16:28.122Z,111.20
2023-02-17T02:17:28.200Z,115.10
2023-02-17T02:18:28.157Z,114.40
2023-02-17T02:19:28.128Z,116.60
2023-02-17T02:20:28.111Z,118.90
2023-02-17T02:21:28.147Z,119.90
2023-02-17T02:22:28.113Z,123.70
2023-02-17T02:23:28.122Z,114.20
2023-02-17T02:24:28.086Z,119.00
2023-02-17T02:25:28.116Z,127.60
2023-02-17T02:26:28.103Z,122.80
2023-02-17T02:27:28.100Z,126.70
2023-02-17T02:28:28.091Z,131.90
2023-02-17T02:29:28.098Z,125.30
2023-02-17T02:30:28.098Z,123.80
2023-02-17T02:31:28.139Z,135.80
2023-02-17T02:32:28.103Z,119.60
2023-02-17T02:33:28.024Z,124.80
2023-02-17T02:34:28.079Z,125.10
2023-02-17T02:35:28.091Z,120.60
2023-02-17T02:36:28.024Z,123.80
2023-02-17T02:37:28.027Z,123.10
2023-02-17T02:38:28.056Z,120.70
2023-02-17T02:39:28.093Z,129.10
2023-02-17T02:40:28.030Z,131.40
2023-02-17T02:41:28.052Z,123.80
2023-02-17T02:42:28.016Z,130.00
2023-02-17T02:43:28.094Z,133.80
2023-02-17T02:44:28.017Z,127.30
2023-02-17T02:45:28.042Z,135.00
2023-02-17T02:46:28.000Z,129.80
2023-02-17T02:47:28.010Z,122.40
2023-02-17T02:48:28.061Z,117.30
2023-02-17T02:49:28.073Z,132.70
2023-02-17T02:50:27.962Z,121.30
2023-02-17T02:51:28.018Z,128.80
2023-02-17T02:52:27.990Z,124.70
2023-02-17T02:53:27.967Z,119.60
2023-02-17T02:54:27.977Z,119.90
2023-02-17T02:55:27.969Z,112.70
2023-02-17T02:56:27.989Z,129.70
2023-02-17T02:57:27.947Z,124.40
2023-02-17T02:58:27.936Z,127.70
2023-02-17T02:59:27.926Z,128.50
2023-02-17T03:00:27.952Z,116.10
2023-02-17T03:01:27.986Z,124.10
2023-02-17T03:02:27.937Z,119.90
2023-02-17T03:03:27.926Z,114.80
2023-02-17T03:04:27.941Z,124.00
2023-02-17T03:05:27.951Z,123.00
2023-02-17T03:06:27.911Z,118.10
2023-02-17T03:07:27.894Z,120.20
2023-02-17T03:08:27.900Z,120.80
2023-02-17T03:09:27.873Z,124.60
2023-02-17T03:10:27.914Z,122.10
2023-02-17T03:11:27.888Z,122.00
2023-02-17T03:12:27.932Z,119.50
2023-02-17T03:13:27.915Z,116.60
2023-02-17T03:14:27.861Z,116.20
2023-02-17T03:15:27.868Z,118.50
2023-02-17T03:16:28.017Z,111.70
2023-02-17T03:17:27.875Z,115.60
2023-02-17T03:18:27.830Z,113.40
2023-02-17T03:19:27.859Z,119.90
2023-02-17T03:20:27.832Z,113.70
2023-02-17T03:21:27.912Z,113.00
2023-02-17T03:22:27.838Z,107.60
2023-02-17T03:23:27.860Z,113.70
2023-02-17T03:24:27.816Z,112.00
2023-02-17T03:25:27.902Z,109.90
2023-02-17T03:26:27.821Z,109.70
2023-02-17T03:27:27.865Z,107.40
2023-02-17T03:28:27.799Z,101.30
2023-02-17T03:29:27.801Z,109.40
2023-02-17T03:30:27.863Z,101.20
2023-02-17T03:31:30.633Z,108.30
2023-02-17T03:32:28.804Z,104.00
2023-02-17T03:33:27.824Z,100.80
2023-02-17T03:34:27.828Z,96.90
2023-02-17T03:35:27.854Z,105.10
2023-02-17T03:36:27.770Z,102.30
2023-02-17T03:37:27.781Z,97.90
2023-02-17T03:38:27.766Z,95.80
2023-02-17T03:39:27.792Z,102.50
2023-02-17T03:40:27.785Z,102.30
2023-02-17T03:41:27.736Z,106.30
2023-02-17T03:42:27.737Z,98.40
2023-02-17T03:43:27.778Z,95.00
2023-02-17T03:44:27.719Z,95.00
2023-02-17T03:45:27.710Z,96.20
2023-02-17T03:46:27.714Z,90.50
2023-02-17T03:47:27.712Z,96.90
2023-02-17T03:48:27.858Z,105.80
2023-02-17T03:49:27.708Z,95.50
2023-02-17T03:50:27.708Z,103.00
2023-02-17T03:51:27.703Z,100.60
2023-02-17T03:52:27.688Z,93.50
2023-02-17T03:53:27.688Z,101.30
2023-02-17T03:54:27.686Z,96.20
2023-02-17T03:55:27.739Z,94.90
2023-02-17T03:56:27.680Z,99.30
2023-02-17T03:57:27.663Z,97.50
2023-02-17T03:58:27.682Z,101.20
2023-02-17T03:59:27.694Z,94.50
2023-02-17T04:00:27.721Z,91.60
2023-02-17T04:01:27.664Z,99.90
2023-02-17T04:02:27.671Z,93.30
2023-02-17T04:03:27.648Z,96.70
2023-02-17T04:04:27.671Z,92.30
2023-02-17T04:05:27.661Z,90.40
2023-02-17T04:06:27.668Z,87.60
2023-02-17T04:07:27.677Z,87.40
2023-02-17T04:08:27.655Z,84.80
2023-02-17T04:09:27.616Z,84.80
2023-02-17T04:10:27.598Z,82.60
2023-02-17T04:11:27.598Z,89.20
2023-02-17T04:12:27.633Z,77.80
2023-02-17T04:13:27.591Z,86.30
2023-02-17T04:14:27.602Z,85.30
2023-02-17T04:15:27.656Z,81.70
2023-02-17T04:16:27.629Z,80.60
2023-02-17T04:17:27.595Z,82.10
2023-02-17T04:18:27.553Z,78.90
2023-02-17T04:19:27.681Z,76.00
2023-02-17T04:20:27.541Z,81.90
2023-02-17T04:21:27.594Z,75.10
2023-02-17T04:22:27.571Z,76.80
2023-02-17T04:23:27.560Z,76.60
2023-02-17T04:24:27.518Z,79.50
2023-02-17T04:25:27.587Z,78.50
2023-02-17T04:26:27.540Z,74.90
2023-02-17T04:27:27.531Z,76.80
2023-02-17T04:28:27.536Z,74.20
2023-02-17T04:29:27.610Z,74.30
2023-02-17T04:30:27.532Z,78.60
2023-02-17T04:31:27.589Z,73.80
2023-02-17T04:32:27.534Z,73.20
2023-02-17T04:33:27.566Z,75.40
2023-02-17T04:34:27.498Z,73.20
2023-02-17T04:35:27.508Z,78.90
2023-02-17T04:36:27.487Z,74.40
2023-02-17T04:37:27.623Z,72.70
2023-02-17T04:38:27.516Z,67.40
2023-02-17T04:39:27.498Z,79.70
2023-02-17T04:40:27.478Z,71.00
2023-02-17T04:41:27.514Z,68.70
2023-02-17T04:42:27.447Z,63.60
2023-02-17T04:43:27.477Z,72.60
2023-02-17T04:44:27.502Z,70.40
2023-02-17T04:45:27.455Z,65.70
2023-02-17T04:46:27.498Z,71.20
2023-02-17T04:47:27.461Z,73.70
2023-02-17T04:48:27.494Z,70.60
2023-02-17T04:49:27.437Z,67.30
2023-02-17T04:50:27.431Z,66.40
2023-02-17T04:51:27.459Z,68.20
2023-02-17T04:52:27.414Z,70.40
2023-02-17T04:53:27.535Z,72.80
2023-02-17T04:54:27.437Z,75.40
2023-02-17T04:55:27.446Z,67.90
2023-02-17T04:56:27.418Z,70.20
2023-02-17T04:57:27.404Z,67.20
2023-02-17T04:58:27.414Z,62.40
2023-02-17T04:59:27.404Z,62.30
2023-02-17T05:00:27.440Z,55.90
2023-02-17T05:01:27.446Z,65.90
2023-02-17T05:02:27.369Z,61.80
2023-02-17T05:03:27.376Z,60.90
2023-02-17T05:04:27.460Z,56.60
2023-02-17T05:05:27.407Z,58.00
2023-02-17T05:06:27.410Z,58.20
2023-02-17T05:07:27.353Z,59.80
2023-02-17T05:08:27.361Z,62.20
2023-02-17T05:09:27.369Z,64.80
2023-02-17T05:10:27.365Z,60.00
2023-02-17T05:11:27.432Z,68.80
2023-02-17T05:12:27.354Z,60.30
2023-02-17T05:13:27.326Z,54.60
2023-02-17T05:14:27.358Z,58.00
2023-02-17T05:15:27.348Z,51.50
2023-02-17T05:16:27.407Z,57.60
2023-02-17T05:17:27.361Z,61.30
2023-02-17T05:18:27.295Z,50.80
2023-02-17T05:19:27.404Z,53.70
2023-02-17T05:20:27.337Z,55.10
2023-02-17T05:21:27.305Z,59.00
2023-02-17T05:22:27.282Z,54.80
2023-02-17T05:23:27.303Z,57.30
2023-02-17T05:24:27.273Z,59.50
2023-02-17T05:25:27.274Z,52.00
2023-02-17T05:26:27.267Z,57.80
2023-02-17T05:27:27.285Z,58.60
2023-02-17T05:28:27.269Z,56.20
2023-02-17T05:29:27.331Z,52.50
2023-02-17T05:30:27.292Z,54.70
2023-02-17T05:31:27.379Z,48.00
2023-02-17T05:32:27.268Z,50.80
2023-02-17T05:33:27.239Z,53.20
2023-02-17T05:34:27.258Z,54.00
2023-02-17T05:35:27.227Z,52.70
2023-02-17T05:36:28.222Z,46.80
2023-02-17T05:37:27.243Z,53.70
2023-02-17T05:38:27.253Z,47.90
2023-02-17T05:39:27.223Z,47.60
2023-02-17T05:40:27.202Z,44.20
2023-02-17T05:41:27.230Z,43.10
2023-02-17T05:42:27.217Z,38.60
2023-02-17T05:43:27.203Z,44.20
2023-02-17T05:44:27.193Z,46.60
2023-02-17T05:45:27.240Z,46.30
2023-02-17T05:46:27.254Z,41.30
2023-02-17T05:47:27.779Z,48.50
2023-02-17T05:48:28.159Z,49.00
2023-02-17T05:49:27.192Z,45.80
2023-02-17T05:50:27.188Z,47.10
2023-02-17T05:51:27.180Z,44.70
2023-02-17T05:52:27.153Z,45.90
2023-02-17T05:53:27.171Z,40.60
2023-02-17T05:54:27.140Z,40.20
2023-02-17T05:55:27.154Z,47.60
2023-02-17T05:56:27.159Z,41.20
2023-02-17T05:57:27.127Z,46.20
2023-02-17T05:58:27.178Z,42.50
2023-02-17T05:59:27.164Z,50.10
2023-02-17T06:00:27.118Z,42.40
2023-02-17T06:01:27.122Z,34.90
2023-02-17T06:02:27.126Z,39.60
2023-02-17T06:03:27.124Z,38.70
2023-02-17T06:04:27.159Z,39.30
2023-02-17T06:05:27.107Z,33.90
2023-02-17T06:06:27.105Z,37.50
2023-02-17T06:07:27.092Z,37.60
2023-02-17T06:08:27.272Z,30.20
2023-02-17T06:09:27.093Z,36.70
2023-02-17T06:10:27.106Z,31.90
2023-02-17T06:11:27.078Z,31.00
2023-02-17T06:12:27.079Z,27.70
2023-02-17T06:13:27.086Z,33.70
2023-02-17T06:14:27.073Z,32.40
2023-02-17T06:15:27.092Z,23.20
2023-02-17T06:16:27.168Z,27.60
2023-02-17T06:17:27.036Z,27.30
2023-02-17T06:18:27.060Z,23.10
2023-02-17T06:19:27.068Z,31.50
2023-02-17T06:20:27.034Z,32.20
2023-02-17T06:21:27.026Z,35.50
2023-02-17T06:22:28.067Z,37.80
2023-02-17T06:23:27.039Z,32.80
2023-02-17T06:24:27.024Z,29.70
2023-02-17T06:25:27.011Z,25.80
2023-02-17T06:26:27.037Z,28.10
2023-02-17T06:27:27.039Z,24.60
2023-02-17T06:28:27.014Z,24.40
2023-02-17T06:29:27.019Z,29.00
2023-02-17T06:30:27.065Z,24.90
2023-02-17T06:31:27.114Z,23.70
2023-02-17T06:32:27.009Z,22.80
2023-02-17T06:33:27.013Z,21.10
2023-02-17T06:34:26.996Z,23.00
2023-02-17T06:35:26.989Z,22.00
2023-02-17T06:36:26.946Z,25.80
2023-02-17T06:37:26.944Z,20.70
2023-02-17T06:38:27.007Z,23.30
2023-02-17T06:39:26.960Z,23.60
2023-02-17T06:40:28.752Z,21.50
2023-02-17T06:41:28.086Z,20.80
2023-02-17T06:42:26.964Z,24.50
2023-02-17T06:43:26.934Z,19.90
2023-02-17T06:44:26.935Z,20.20
2023-02-17T06:45:26.996Z,20.70
2023-02-17T06:46:26.931Z,18.80
2023-02-17T06:47:26.931Z,17.20
2023-02-17T06:48:26.918Z,16.70
2023-02-17T06:49:26.919Z,15.40
2023-02-17T06:50:26.892Z,15.00
2023-02-17T06:51:26.878Z,16.70
2023-02-17T06:52:26.881Z,14.50
2023-02-17T06:53:26.889Z,15.40
2023-02-17T06:54:26.925Z,15.20
2023-02-17T06:55:26.893Z,15.70
2023-02-17T06:56:26.902Z,15.00
2023-02-17T06:57:26.862Z,15.00
2023-02-17T06:58:26.877Z,14.90
2023-02-17T06:59:26.871Z,14.90
2023-02-17T07:00:26.881Z,14.40
2023-02-17T07:01:26.841Z,14.70
2023-02-17T07:02:26.907Z,15.20
2023-02-17T07:03:26.955Z,16.00
2023-02-17T07:04:26.827Z,14.70
2023-02-17T07:05:26.836Z,14.50
2023-02-17T07:06:26.824Z,15.10
2023-02-17T07:07:26.837Z,14.70
2023-02-17T07:08:26.910Z,14.70
2023-02-17T07:09:26.830Z,13.80
2023-02-17T07:10:26.828Z,13.50
2023-02-17T07:11:26.824Z,14.40
2023-02-17T07:12:26.790Z,13.00
2023-02-17T07:13:26.869Z,14.30
2023-02-17T07:14:26.812Z,14.40
2023-02-17T07:15:26.809Z,14.70
2023-02-17T07:16:26.841Z,13.40
2023-02-17T07:17:26.814Z,14.00
2023-02-17T07:18:26.781Z,12.80
2023-02-17T07:19:26.793Z,13.00
2023-02-17T07:20:26.820Z,13.60
2023-02-17T07:21:26.760Z,14.10
2023-02-17T07:22:26.792Z,14.70
2023-02-17T07:23:26.753Z,12.90
2023-02-17T07:24:26.749Z,11.30
2023-02-17T07:25:26.762Z,10.40
2023-02-17T07:26:26.799Z,11.00
2023-02-17T07:27:26.748Z,11.00
2023-02-17T07:28:26.719Z,10.70
2023-02-17T07:29:26.702Z,11.20
2023-02-17T07:30:26.749Z,11.20
2023-02-17T07:31:26.806Z,12.10
2023-02-17T07:32:26.692Z,10.80
2023-02-17T07:33:26.694Z,11.30
2023-02-17T07:34:26.696Z,10.90
2023-02-17T07:35:27.821Z,11.70
2023-02-17T07:36:26.731Z,10.70
2023-02-17T07:37:26.681Z,10.80
2023-02-17T07:38:26.671Z,10.00
2023-02-17T07:39:26.687Z,10.10
2023-02-17T07:40:26.668Z,10.30
2023-02-17T07:41:26.701Z,10.50
2023-02-17T07:42:26.681Z,9.00
2023-02-17T07:43:26.667Z,9.90
2023-02-17T07:44:26.652Z,10.00
2023-02-17T07:45:26.690Z,9.80
2023-02-17T07:46:26.671Z,9.90
2023-02-17T07:47:26.904Z,9.80
2023-02-17T07:48:26.637Z,9.20
2023-02-17T07:49:26.629Z,9.30
2023-02-17T07:50:26.616Z,9.40
2023-02-17T07:51:26.608Z,9.30
2023-02-17T07:52:26.677Z,8.70
2023-02-17T07:53:26.623Z,9.40
2023-02-17T07:54:26.609Z,8.40
2023-02-17T07:55:26.628Z,8.30
2023-02-17T07:56:26.584Z,9.10
2023-02-17T07:57:26.615Z,8.30
2023-02-17T07:58:26.727Z,8.70
2023-02-17T07:59:26.590Z,8.30
2023-02-17T08:00:26.566Z,8.30
2023-02-17T08:01:26.625Z,9.20
2023-02-17T08:02:26.670Z,8.60
2023-02-17T08:03:26.570Z,8.60
2023-02-17T08:04:27.573Z,8.70
2023-02-17T08:05:26.659Z,8.30
2023-02-17T08:06:26.538Z,8.10
2023-02-17T08:07:26.541Z,8.40
2023-02-17T08:08:26.573Z,8.70
2023-02-17T08:09:26.541Z,8.80
2023-02-17T08:10:26.538Z,8.60
2023-02-17T08:11:26.547Z,8.30
2023-02-17T08:12:26.518Z,11.60
2023-02-17T08:13:26.625Z,8.50
2023-02-17T08:14:26.556Z,8.40
2023-02-17T08:15:26.528Z,7.60
2023-02-17T08:16:26.693Z,8.00
2023-02-17T08:17:26.488Z,8.00
2023-02-17T08:18:27.905Z,7.90
2023-02-17T08:19:31.656Z,7.60
2023-02-17T08:20:27.592Z,7.50
2023-02-17T08:21:26.526Z,7.30
2023-02-17T08:22:26.502Z,7.40
2023-02-17T08:23:26.507Z,7.10
2023-02-17T08:24:26.491Z,7.20
2023-02-17T08:25:26.556Z,7.40
2023-02-17T08:26:26.501Z,7.20
2023-02-17T08:27:26.597Z,7.30
2023-02-17T08:28:26.429Z,7.10
2023-02-17T08:29:26.492Z,7.80
2023-02-17T08:30:26.628Z,7.40
2023-02-17T08:31:26.511Z,7.50
2023-02-17T08:32:26.446Z,7.50
2023-02-17T08:33:26.458Z,6.80
2023-02-17T08:34:26.440Z,6.90
2023-02-17T08:35:26.469Z,7.50
2023-02-17T08:36:26.438Z,6.80
2023-02-17T08:37:26.393Z,7.00
2023-02-17T08:38:26.391Z,7.50
2023-02-17T08:39:26.400Z,7.70
2023-02-17T08:40:26.464Z,7.10
2023-02-17T08:41:26.394Z,6.70
2023-02-17T08:42:26.385Z,7.50
2023-02-17T08:43:26.377Z,7.70
2023-02-17T08:44:26.405Z,6.50
2023-02-17T08:45:26.402Z,7.40
2023-02-17T08:46:26.407Z,7.60
2023-02-17T08:47:26.408Z,7.90
2023-02-17T08:48:26.401Z,7.40
2023-02-17T08:49:26.358Z,6.80
2023-02-17T08:50:26.370Z,7.90
2023-02-17T08:51:26.331Z,6.90
2023-02-17T08:52:26.369Z,7.10
2023-02-17T08:53:26.377Z,7.80
2023-02-17T08:54:26.313Z,7.20
2023-02-17T08:55:26.371Z,7.50
2023-02-17T08:56:26.352Z,7.00
2023-02-17T08:57:26.347Z,7.70
2023-02-17T08:58:26.358Z,7.40
2023-02-17T08:59:26.312Z,6.70
2023-02-17T09:00:26.341Z,7.30
2023-02-17T09:01:26.286Z,7.30
2023-02-17T09:02:26.314Z,7.60
2023-02-17T09:03:26.323Z,7.90
2023-02-17T09:04:26.432Z,7.70
2023-02-17T09:05:26.261Z,7.20
2023-02-17T09:06:26.343Z,7.00
2023-02-17T09:07:26.278Z,7.20
2023-02-17T09:08:26.298Z,7.00
2023-02-17T09:09:26.312Z,7.10
2023-02-17T09:10:26.443Z,6.90
2023-02-17T09:11:26.254Z,7.20
2023-02-17T09:12:26.262Z,7.00
2023-02-17T09:13:26.222Z,6.80
2023-02-17T09:14:26.274Z,6.70
2023-02-17T09:15:26.200Z,7.00
2023-02-17T09:16:26.320Z,7.20
2023-02-17T09:17:26.249Z,6.70
2023-02-17T09:18:26.207Z,7.10
2023-02-17T09:19:26.213Z,6.70
2023-02-17T09:20:26.333Z,6.90
2023-02-17T09:21:26.222Z,6.50
2023-02-17T09:22:32.051Z,6.70
2023-02-17T09:23:28.211Z,7.00
2023-02-17T09:24:26.180Z,9.10
2023-02-17T09:25:26.162Z,6.40
2023-02-17T09:26:26.198Z,6.30
2023-02-17T09:27:26.147Z,6.70
2023-02-17T09:28:26.206Z,6.70
2023-02-17T09:29:26.151Z,7.00
2023-02-17T09:30:26.176Z,7.30
2023-02-17T09:31:26.224Z,6.50
2023-02-17T09:32:26.198Z,6.50
2023-02-17T09:33:27.191Z,7.20
2023-02-17T09:34:27.153Z,7.00
2023-02-17T09:35:26.140Z,6.30
2023-02-17T09:36:26.154Z,6.60
2023-02-17T09:37:26.118Z,6.70
2023-02-17T09:38:26.179Z,7.10
2023-02-17T09:39:26.159Z,6.50
2023-02-17T09:40:26.111Z,8.90
2023-02-17T09:41:26.073Z,7.10
2023-02-17T09:42:26.135Z,7.20
2023-02-17T09:43:26.128Z,7.10
2023-02-17T09:44:26.134Z,7.20
2023-02-17T09:45:26.071Z,6.80
2023-02-17T09:46:26.137Z,6.70
2023-02-17T09:47:26.193Z,6.50
2023-02-17T09:48:27.083Z,6.10
2023-02-17T09:49:26.076Z,6.60
2023-02-17T09:50:26.050Z,6.70
2023-02-17T09:51:26.028Z,6.40
2023-02-17T09:52:26.117Z,6.90
2023-02-17T09:53:26.073Z,6.60
2023-02-17T09:54:26.043Z,6.30
2023-02-17T09:55:26.021Z,6.90
2023-02-17T09:56:26.023Z,6.10
2023-02-17T09:57:26.418Z,6.80
2023-02-17T09:58:26.062Z,6.20
2023-02-17T09:59:25.991Z,6.30
2023-02-17T10:00:26.008Z,6.60
2023-02-17T10:01:26.609Z,6.40
2023-02-17T10:02:26.095Z,7.10
2023-02-17T10:03:26.083Z,7.50
2023-02-17T10:04:26.046Z,6.20
2023-02-17T10:05:26.137Z,6.30
2023-02-17T10:06:25.951Z,6.40
2023-02-17T10:07:25.968Z,6.40
2023-02-17T10:08:25.977Z,6.70
2023-02-17T10:09:25.947Z,6.70
2023-02-17T10:10:25.989Z,7.60
2023-02-17T10:11:25.972Z,7.00
2023-02-17T10:12:25.920Z,6.30
2023-02-17T10:13:26.016Z,6.80
2023-02-17T10:14:25.981Z,6.70
2023-02-17T10:15:26.046Z,6.30
2023-02-17T10:16:25.954Z,7.20
2023-02-17T10:17:25.963Z,7.20
2023-02-17T10:18:25.920Z,7.00
2023-02-17T10:19:26.012Z,7.10
2023-02-17T10:20:25.911Z,6.60
2023-02-17T10:21:25.896Z,6.60
2023-02-17T10:22:25.875Z,6.10
2023-02-17T10:23:25.918Z,6.90
2023-02-17T10:24:25.915Z,6.70
2023-02-17T10:25:25.887Z,6.50
2023-02-17T10:26:25.838Z,6.80
2023-02-17T10:27:25.886Z,6.20
2023-02-17T10:28:26.923Z,6.50
2023-02-17T10:29:25.850Z,6.20
2023-02-17T10:30:25.874Z,6.60
2023-02-17T10:31:25.930Z,7.10
2023-02-17T10:32:25.955Z,7.30
2023-02-17T10:33:25.837Z,7.10
2023-02-17T10:34:25.854Z,6.70
2023-02-17T10:35:25.824Z,6.40
2023-02-17T10:36:25.808Z,6.00
2023-02-17T10:37:25.819Z,6.50
2023-02-17T10:38:25.808Z,6.50
2023-02-17T10:39:25.777Z,6.20
2023-02-17T10:40:25.790Z,6.70
2023-02-17T10:41:25.785Z,6.10
2023-02-17T10:42:25.747Z,6.80
2023-02-17T10:43:25.724Z,6.40
2023-02-17T10:44:25.786Z,6.10
2023-02-17T10:45:25.787Z,6.30
2023-02-17T10:46:25.796Z,6.20
2023-02-17T10:47:25.749Z,6.20
2023-02-17T10:48:25.711Z,6.10
2023-02-17T10:49:25.744Z,6.10
2023-02-17T10:50:25.718Z,6.60
2023-02-17T10:51:25.721Z,6.30
2023-02-17T10:52:25.721Z,6.20
2023-02-17T10:53:25.687Z,5.90
2023-02-17T10:54:25.718Z,5.60
2023-02-17T10:55:25.682Z,6.00
2023-02-17T10:56:25.768Z,5.40
2023-02-17T10:57:27.062Z,5.60
2023-02-17T10:58:26.690Z,5.70
2023-02-17T10:59:25.801Z,6.00
2023-02-17T11:00:25.683Z,5.40
2023-02-17T11:01:25.667Z,5.60
2023-02-17T11:02:25.692Z,5.90
2023-02-17T11:03:25.709Z,5.60
2023-02-17T11:04:25.654Z,5.30
2023-02-17T11:05:25.622Z,5.50
2023-02-17T11:06:25.610Z,5.70
2023-02-17T11:07:25.626Z,5.60
2023-02-17T11:08:25.636Z,5.70
2023-02-17T11:09:25.615Z,6.50
2023-02-17T11:10:25.609Z,5.00
2023-02-17T11:11:25.613Z,5.70
2023-02-17T11:12:25.735Z,5.70
2023-02-17T11:13:25.642Z,4.90
2023-02-17T11:14:25.595Z,5.30
2023-02-17T11:15:25.582Z,5.50
2023-02-17T11:16:25.621Z,5.40
2023-02-17T11:17:25.553Z,4.80
2023-02-17T11:18:25.592Z,5.20
2023-02-17T11:19:25.592Z,5.20
2023-02-17T11:20:25.543Z,4.90
2023-02-17T11:21:25.533Z,5.30
2023-02-17T11:22:25.544Z,5.20
2023-02-17T11:23:25.525Z,5.10
2023-02-17T11:24:25.561Z,5.10
2023-02-17T11:25:25.501Z,4.80
2023-02-17T11:26:25.547Z,5.00
2023-02-17T11:27:25.498Z,4.70
2023-02-17T11:28:25.501Z,5.20
2023-02-17T11:29:25.553Z,11.60
2023-02-17T11:30:25.539Z,5.00
2023-02-17T11:31:25.599Z,4.70
2023-02-17T11:32:25.466Z,4.80
2023-02-17T11:33:25.500Z,4.50
2023-02-17T11:34:25.486Z,4.50
2023-02-17T11:35:25.474Z,4.50
2023-02-17T11:36:25.488Z,4.30
2023-02-17T11:37:25.444Z,4.10
2023-02-17T11:38:25.469Z,4.30
2023-02-17T11:39:25.441Z,3.90
2023-02-17T11:40:26.533Z,4.50
2023-02-17T11:41:26.463Z,4.30
2023-02-17T11:42:25.422Z,3.70
2023-02-17T11:43:25.398Z,4.60
2023-02-17T11:44:25.567Z,4.10
2023-02-17T11:45:25.441Z,3.90
2023-02-17T11:46:25.443Z,3.80
2023-02-17T11:47:25.581Z,3.90
2023-02-17T11:48:25.416Z,4.20
2023-02-17T11:49:25.418Z,4.10
2023-02-17T11:50:40.132Z,4.20
2023-02-17T11:51:27.358Z,4.20
2023-02-17T11:52:25.365Z,4.20
2023-02-17T11:53:25.347Z,4.30
2023-02-17T11:54:25.336Z,6.10
2023-02-17T11:55:25.316Z,4.10
2023-02-17T11:56:25.334Z,3.80
2023-02-17T11:57:25.311Z,4.10
2023-02-17T11:58:25.319Z,3.70
2023-02-17T11:59:25.308Z,4.00
2023-02-17T12:00:25.287Z,3.80
2023-02-17T12:01:25.276Z,4.30
2023-02-17T12:02:25.266Z,4.20
2023-02-17T12:03:25.506Z,4.20
2023-02-17T12:04:25.260Z,4.20
2023-02-17T12:05:25.256Z,4.00
2023-02-17T12:06:25.242Z,3.80
2023-02-17T12:07:25.232Z,4.10
2023-02-17T12:08:25.309Z,4.90
2023-02-17T12:09:25.261Z,4.40
2023-02-17T12:10:25.228Z,4.00
2023-02-17T12:11:25.216Z,4.10
2023-02-17T12:12:25.191Z,4.00
2023-02-17T12:13:25.195Z,4.20
2023-02-17T12:14:25.216Z,4.50
2023-02-17T12:15:25.208Z,3.80
2023-02-17T12:16:25.213Z,5.80
2023-02-17T12:17:25.157Z,4.20
2023-02-17T12:18:25.172Z,3.90
2023-02-17T12:19:25.153Z,4.10
2023-02-17T12:20:25.172Z,4.20
2023-02-17T12:21:25.131Z,4.30
2023-02-17T12:22:25.145Z,3.80
2023-02-17T12:23:25.135Z,4.50
2023-02-17T12:24:25.149Z,4.30
2023-02-17T12:25:25.119Z,5.20
2023-02-17T12:26:25.100Z,3.70
2023-02-17T12:27:25.131Z,3.90
2023-02-17T12:28:25.107Z,3.40
2023-02-17T12:29:25.094Z,3.10
2023-02-17T12:30:25.176Z,4.10
2023-02-17T12:31:25.169Z,4.20
2023-02-17T12:32:25.078Z,3.50
2023-02-17T12:33:25.062Z,3.00
2023-02-17T12:34:25.053Z,3.10
2023-02-17T12:35:25.091Z,2.60
2023-02-17T12:36:25.067Z,2.80
2023-02-17T12:37:25.038Z,3.00
2023-02-17T12:38:25.072Z,3.10
2023-02-17T12:39:25.025Z,2.90
2023-02-17T12:40:25.103Z,3.00
2023-02-17T12:41:25.024Z,4.30
2023-02-17T12:42:25.015Z,2.60
2023-02-17T12:43:25.023Z,2.60
2023-02-17T12:44:24.999Z,6.20
2023-02-17T12:45:24.979Z,3.70
2023-02-17T12:46:25.050Z,3.00
2023-02-17T12:47:25.091Z,2.50
2023-02-17T12:48:25.016Z,2.50
2023-02-17T12:49:24.982Z,2.60
2023-02-17T12:50:25.110Z,2.40
2023-02-17T12:51:24.954Z,2.20
2023-02-17T12:52:24.963Z,2.60
2023-02-17T12:53:24.940Z,4.00
2023-02-17T12:54:24.954Z,2.40
2023-02-17T12:55:24.929Z,2.80
2023-02-17T12:56:24.912Z,2.60
2023-02-17T12:57:24.883Z,3.10
2023-02-17T12:58:24.901Z,2.30
2023-02-17T12:59:24.894Z,3.90